Time;durP1;ratioP1;P1;durP2;ratioP2;P2;SDS_P1;SDS_P2;PMS_P1;PMS_P2;Temp;Humidity;BMP_temperature;BMP_pressure;BME280_temperature;BME280_humidity;BME280_pressure;Samples;Min_cycle;Max_cycle;Signal;HPM_P1;HPM_P2
2022/02/12 00:13:41;;;;;;;7.53;3.28;;;;;;;2.20;100.00;101406.41;713358;1174;115027;-82
2022/02/12 00:28:43;;;;;;;9.13;4.30;;;;;;;2.06;100.00;101443.14;713316;1174;115200;-82
2022/02/12 00:43:45;;;;;;;12.20;3.53;;;;;;;1.85;100.00;101462.83;713596;1174;114749;-80
2022/02/12 00:58:48;;;;;;;7.48;3.35;;;;;;;1.72;100.00;101490.83;713062;1174;115658;-80
2022/02/12 01:13:50;;;;;;;14.65;5.28;;;;;;;1.65;100.00;101522.98;713410;1174;114943;-81
2022/02/12 01:28:53;;;;;;;10.65;4.60;;;;;;;1.61;100.00;101547.22;714097;1174;115473;-81
2022/02/12 01:43:57;;;;;;;6.70;3.23;;;;;;;1.57;100.00;101567.19;713316;1174;115882;-82
2022/02/12 01:58:59;;;;;;;15.93;6.28;;;;;;;1.46;100.00;101584.75;713189;1174;115051;-81
2022/02/12 02:14:03;;;;;;;7.90;4.13;;;;;;;1.36;100.00;101624.69;713694;1175;114286;-81
2022/02/12 02:29:05;;;;;;;8.27;3.83;;;;;;;1.28;100.00;101637.83;713380;1174;115480;-81
2022/02/12 02:44:07;;;;;;;7.93;3.60;;;;;;;1.24;100.00;101664.66;713218;1174;115128;-85
2022/02/12 02:59:11;;;;;;;11.55;3.90;;;;;;;1.12;100.00;101684.80;713074;1174;115487;-81
2022/02/12 03:14:13;;;;;;;6.67;3.23;;;;;;;0.92;99.99;101703.38;713576;1174;114594;-79
2022/02/12 03:29:15;;;;;;;9.37;4.47;;;;;;;0.92;99.94;101705.13;713470;1174;115548;-81
2022/02/12 03:44:17;;;;;;;7.53;4.35;;;;;;;0.87;99.06;101738.84;713402;1174;113983;-81
2022/02/12 03:59:20;;;;;;;8.65;3.30;;;;;;;0.79;99.03;101770.03;713460;1174;114575;-81
2022/02/12 04:14:22;;;;;;;4.90;2.43;;;;;;;0.78;98.94;101801.91;713346;1174;115165;-80
2022/02/12 04:29:24;;;;;;;10.35;3.78;;;;;;;0.76;98.23;101807.99;713430;1174;115480;-80
2022/02/12 04:44:26;;;;;;;5.85;2.40;;;;;;;0.58;98.17;101816.99;713318;1174;115560;-81
2022/02/12 04:59:29;;;;;;;6.15;2.90;;;;;;;0.50;98.21;101814.57;713373;1174;115640;-82
2022/02/12 05:14:32;;;;;;;11.28;5.10;;;;;;;0.41;97.54;101807.89;713697;1174;114701;-80
2022/02/12 05:29:35;;;;;;;20.28;8.35;;;;;;;0.16;97.06;101823.88;713428;1174;113895;-81
2022/02/12 05:44:37;;;;;;;62.83;24.15;;;;;;;-0.07;97.80;101846.70;713294;1174;114153;-81
2022/02/12 05:59:39;;;;;;;12.67;6.77;;;;;;;-0.13;97.77;101882.92;713232;1174;115804;-82
2022/02/12 06:14:41;;;;;;;10.55;5.28;;;;;;;-0.11;97.92;101897.50;713578;1173;114212;-82
2022/02/12 06:29:44;;;;;;;9.45;4.35;;;;;;;-0.13;97.82;101900.98;713765;1174;114319;-78
2022/02/12 06:44:47;;;;;;;279.50;136.00;;;;;;;-0.09;97.74;101926.71;714819;1174;115066;-80
2022/02/12 06:59:49;;;;;;;63.70;39.65;;;;;;;0.38;98.99;101947.37;714665;1174;114944;-79
2022/02/12 07:14:52;;;;;;;68.30;25.05;;;;;;;0.83;98.80;101962.86;715491;1174;115669;-80
2022/02/12 07:29:54;;;;;;;58.25;35.13;;;;;;;1.71;99.47;101977.32;715538;1174;116222;-76
2022/02/12 07:44:56;;;;;;;116.30;57.10;;;;;;;2.57;98.74;101993.23;715518;1174;115196;-79
2022/02/12 07:59:59;;;;;;;82.63;48.85;;;;;;;3.39;97.93;102009.07;715761;1174;115691;-76
2022/02/12 08:15:03;;;;;;;38.93;17.58;;;;;;;4.18;97.36;102003.94;715942;1177;114025;-78
2022/02/12 08:30:07;;;;;;;14.60;7.90;;;;;;;4.40;97.51;102018.82;715279;1174;114701;-86
2022/02/12 08:45:10;;;;;;;17.25;7.83;;;;;;;4.54;94.13;102058.18;714958;1200;23154;-80
2022/02/12 09:00:13;;;;;;;46.18;17.18;;;;;;;5.32;94.40;102064.08;714745;1167;115986;-77
2022/02/12 09:15:35;;;;;;;19.93;9.83;;;;;;;5.76;91.76;102079.72;714891;1174;115701;-76
2022/02/12 09:30:38;;;;;;;29.75;13.53;;;;;;;6.07;88.67;102082.89;716021;1174;114900;-76
2022/02/12 09:46:10;;;;;;;35.13;17.80;;;;;;;6.41;87.21;102086.73;714286;1174;115632;-82
2022/02/12 10:01:12;;;;;;;40.83;17.38;;;;;;;7.23;86.36;102070.14;714418;1174;114193;-77
2022/02/12 10:16:14;;;;;;;18.05;8.03;;;;;;;7.48;83.94;102082.91;714184;1174;114073;-76
2022/02/12 10:31:16;;;;;;;20.75;8.90;;;;;;;7.59;82.05;102078.05;714572;1174;114796;-77
2022/02/12 10:46:20;;;;;;;37.28;11.55;;;;;;;7.32;77.70;102070.58;714214;1174;114019;-78
2022/02/12 11:01:22;;;;;;;56.00;20.73;;;;;;;6.91;75.49;102067.22;714168;1174;114646;-74
2022/02/12 11:16:27;;;;;;;13.60;8.00;;;;;;;7.74;76.66;102055.56;714879;1174;114277;-78
2022/02/12 11:31:29;;;;;;;37.43;11.80;;;;;;;7.28;72.88;102042.89;714849;1174;114593;-79
2022/02/12 11:46:41;;;;;;;18.70;7.40;;;;;;;6.58;72.29;102042.52;715022;1174;115304;-77
2022/02/12 12:01:45;;;;;;;20.25;7.15;;;;;;;6.91;73.09;102038.52;714428;1174;113864;-79
2022/02/12 12:16:59;;;;;;;13.45;4.80;;;;;;;7.70;71.03;102037.51;714395;1174;114814;-78
2022/02/12 12:32:09;;;;;;;21.65;9.25;;;;;;;8.14;69.58;102014.42;714182;1174;115072;-75
2022/02/12 12:47:11;;;;;;;34.43;12.70;;;;;;;8.77;67.60;101994.64;718211;1174;114164;-92
2022/02/12 13:02:15;;;;;;;67.57;46.53;;;;;;;8.84;64.98;101992.53;718119;1174;114850;-82
2022/02/12 13:17:18;;;;;;;24.40;11.97;;;;;;;9.54;64.99;101986.13;716844;1174;115496;-82
2022/02/12 13:32:20;;;;;;;20.07;7.40;;;;;;;13.13;62.52;101988.66;715582;1174;115732;-76
2022/02/12 13:47:23;;;;;;;12.65;4.50;;;;;;;15.61;53.05;101959.13;714503;1174;115078;-76
2022/02/12 14:02:26;;;;;;;22.30;10.13;;;;;;;18.06;53.04;101952.70;714686;1174;114976;-81
2022/02/12 14:17:28;;;;;;;19.75;8.13;;;;;;;17.22;48.69;101929.45;714786;1174;115926;-78
2022/02/12 14:32:31;;;;;;;17.43;7.73;;;;;;;16.30;49.08;101908.30;715110;1174;115868;-77
2022/02/12 14:47:34;;;;;;;114.50;34.23;;;;;;;17.37;49.67;101896.23;714748;1174;115605;-76
2022/02/12 15:02:39;;;;;;;26.08;19.33;;;;;;;10.51;51.54;101890.44;715362;1174;116434;-76
2022/02/12 15:17:41;;;;;;;12.43;6.13;;;;;;;8.44;54.10;101869.08;714526;1174;114612;-79
2022/02/12 15:32:43;;;;;;;27.10;15.30;;;;;;;7.17;56.09;101857.24;714669;1174;114648;-74
2022/02/12 15:47:45;;;;;;;15.25;7.10;;;;;;;5.47;58.88;101850.02;714957;1174;115892;-76
2022/02/12 16:02:49;;;;;;;12.23;6.05;;;;;;;4.94;60.82;101835.68;716303;1174;114126;-79
2022/02/12 16:17:51;;;;;;;12.60;6.70;;;;;;;4.43;62.96;101824.63;715204;1174;114133;-80
2022/02/12 16:32:54;;;;;;;66.15;35.35;;;;;;;4.26;65.01;101827.02;715784;1174;114827;-82
2022/02/12 16:47:59;;;;;;;22.20;8.20;;;;;;;3.92;66.55;101826.50;717716;1174;115332;-82
2022/02/12 17:03:05;;;;;;;17.95;8.30;;;;;;;3.70;67.60;101821.21;717597;1174;114145;-80
2022/02/12 17:18:09;;;;;;;16.07;6.40;;;;;;;3.56;69.24;101831.22;716386;1174;114916;-75
2022/02/12 17:33:12;;;;;;;16.40;6.30;;;;;;;3.49;69.04;101839.20;714932;1174;113995;-77
2022/02/12 17:48:14;;;;;;;15.47;7.73;;;;;;;3.26;70.48;101818.36;715335;1173;115452;-74
2022/02/12 18:03:17;;;;;;;16.90;7.70;;;;;;;3.18;72.20;101800.48;714926;1174;114690;-74
2022/02/12 18:18:22;;;;;;;46.25;17.13;;;;;;;3.09;72.31;101782.59;715522;1174;114472;-79
2022/02/12 18:33:25;;;;;;;39.30;20.60;;;;;;;2.91;72.87;101781.47;717500;1174;114468;-84
2022/02/12 18:48:27;;;;;;;31.88;15.58;;;;;;;2.73;73.41;101786.34;718207;1174;115728;-84
2022/02/12 19:03:30;;;;;;;27.98;13.38;;;;;;;2.66;74.21;101756.32;717071;1174;114413;-82
2022/02/12 19:18:33;;;;;;;26.48;12.23;;;;;;;2.48;74.81;101747.37;716746;1174;114023;-82
2022/02/12 19:33:37;;;;;;;25.97;12.70;;;;;;;2.35;75.36;101741.73;717077;1174;115779;-82
2022/02/12 19:48:40;;;;;;;24.28;11.48;;;;;;;2.22;76.84;101741.25;717902;1174;114233;-85
2022/02/12 20:03:43;;;;;;;35.40;15.03;;;;;;;2.11;79.30;101749.34;718073;1174;114874;-84
2022/02/12 20:18:45;;;;;;;28.75;12.70;;;;;;;2.11;80.32;101740.70;721411;1174;114289;-85
2022/02/12 20:33:48;;;;;;;36.55;14.65;;;;;;;2.01;81.30;101727.20;718528;1174;115524;-77
2022/02/12 20:48:50;;;;;;;32.80;15.50;;;;;;;1.91;82.64;101723.17;715384;1174;114736;-76
2022/02/12 21:03:53;;;;;;;31.55;13.48;;;;;;;1.87;81.71;101685.34;714417;1174;117045;-76
2022/02/12 21:18:56;;;;;;;54.58;21.35;;;;;;;1.82;81.66;101694.09;714236;1174;114601;-75
2022/02/12 21:33:59;;;;;;;27.45;13.73;;;;;;;1.88;82.14;101679.27;714266;1174;114159;-75
2022/02/12 21:49:03;;;;;;;28.90;12.05;;;;;;;1.81;82.09;101657.91;714117;1174;114692;-74
2022/02/12 22:04:05;;;;;;;24.57;11.20;;;;;;;1.85;80.87;101643.98;713367;1174;114213;-75
2022/02/12 22:19:12;;;;;;;20.53;9.93;;;;;;;1.79;79.71;101613.94;713270;1174;114807;-76
2022/02/12 22:34:14;;;;;;;35.80;13.80;;;;;;;1.74;79.96;101625.32;713520;1174;113842;-74
2022/02/12 22:49:18;;;;;;;27.23;11.20;;;;;;;1.43;80.75;101615.88;713026;1174;115516;-74
2022/02/12 23:04:20;;;;;;;24.78;11.65;;;;;;;1.26;80.41;101593.09;713271;1174;115140;-75
2022/02/12 23:19:25;;;;;;;27.70;10.97;;;;;;;1.11;81.29;101594.34;713040;1174;115513;-75
2022/02/12 23:34:28;;;;;;;24.28;10.13;;;;;;;1.02;82.39;101579.09;713136;1173;115072;-74
2022/02/12 23:49:30;;;;;;;26.40;11.38;;;;;;;0.89;83.18;101555.34;713338;1174;114712;-74
